Latest Weather Observations for Liawenee

IDT60801

Issued at 10:35 am EDT Thursday 23 October 2014 (issued every 30 minutes, with the page automatically refreshed every 10 minutes)

About weather observations | Map of weather stations | Latest weather observations for TAS | Other Formats
Station Details ID: 096033 Name: LIAWENEE Lat: -41.90 Lon: 146.67 Height: 1057.0 m
Data from the previous 72 hours. | See also: Recent months at Liawenee
Date/Time
EDT
Temp
°C
App
Temp
°C
Dew
Point
Rel
Hum
%
Delta-T
°C
Wind Press
QNH
hPa
Press
MSL
hPa
Rain
since 9 am
mm
Dir
 
Spd
km/h
Gust
km/h
Spd
kts
Gust
kts
23/10:30am 9.4 4.0 2.5 62 3.1 SE 20 28 11 15 1023.7 1024.4 0.0
23/10:00am 8.6 3.9 3.4 70 2.4 SE 17 22 9 12 1023.7 1024.4 0.0
23/09:30am 7.8 3.0 2.7 70 2.3 SSE 17 24 9 13 1023.5 1024.2 0.0
23/09:00am 7.0 2.9 2.5 73 2.0 SE 13 17 7 9 1023.3 1024.0 0.0
23/08:30am 6.6 3.0 3.2 79 1.5 ESE 11 15 6 8 1023.3 1024.0 0.0
23/08:00am 6.1 2.2 3.3 82 1.2 SE 13 17 7 9 1022.9 1023.6 0.0
23/07:30am 6.1 2.4 4.3 88 0.8 SE 13 15 7 8 1022.6 1023.3 0.0
23/07:00am 4.7 0.4 3.5 92 0.5 SSE 15 19 8 10 1021.9 1022.6 0.0
23/06:30am 5.1 1.2 3.6 90 0.7 SE 13 17 7 9 1021.7 1022.4 0.0
23/06:00am 6.3 2.5 5.9 97 0.2 SE 15 20 8 11 1021.3 1021.9 0.0
23/05:30am 6.6 2.8 6.0 96 0.3 SSE 15 22 8 12 1020.7 1021.4 0.0
23/05:00am 7.0 3.3 6.4 96 0.3 S 15 20 8 11 1020.5 1021.1 0.0
23/04:30am 7.6 4.1 7.0 96 0.3 S 15 20 8 11 1020.2 1020.8 0.0
23/04:00am 8.1 4.9 7.0 93 0.5 S 13 19 7 10 1020.1 1020.7 0.0
23/03:30am 8.3 4.8 7.2 93 0.5 S 15 20 8 11 1019.7 1020.3 0.0
23/03:00am 8.6 6.2 7.1 90 0.7 S 9 13 5 7 1020.0 1020.6 0.0
23/02:30am 8.7 5.5 6.7 87 1.0 S 13 17 7 9 1020.0 1020.6 0.0
23/02:00am 8.7 5.9 7.0 89 0.8 S 11 13 6 7 1020.1 1020.7 0.0
23/01:30am 8.6 5.1 7.1 90 0.7 SSW 15 20 8 11 1020.3 1020.9 0.0
23/01:00am 8.6 4.8 7.7 94 0.5 S 17 22 9 12 1020.3 1020.9 0.0
23/12:30am 8.8 4.5 7.7 93 0.6 S 20 26 11 14 1020.3 1020.9 0.0
23/12:00am 9.2 4.9 8.0 92 0.6 SSW 20 26 11 14 1020.0 1020.6 0.0
 
Date/Time
EDT
Temp
°C
App
Temp
°C
Dew
Point
Rel
Hum
%
Delta-T
°C
Wind Press
QNH
hPa
Press
MSL
hPa
Rain
since 9 am
mm
Dir
 
Spd
km/h
Gust
km/h
Spd
kts
Gust
kts
22/11:30pm 9.2 5.1 8.0 92 0.6 SSW 19 24 10 13 1019.6 1020.2 0.0
22/11:00pm 9.2 6.3 8.3 94 0.5 S 13 24 7 13 1019.4 1020.0 0.0
22/10:30pm 8.3 5.3 7.9 97 0.2 SSW 13 19 7 10 1019.3 1019.9 0.0
22/10:00pm 7.5 5.3 6.1 91 0.7 S 7 15 4 8 1019.0 1019.5 0.0
22/09:30pm 8.5 5.3 6.8 89 0.8 WSW 13 17 7 9 1018.7 1019.3 0.0
22/09:00pm 9.7 5.9 7.5 86 1.1 SW 17 22 9 12 1018.8 1019.4 0.0
22/08:30pm 11.2 8.2 7.7 79 1.8 SW 13 17 7 9 1018.4 1019.0 0.0
22/08:00pm 13.2 9.5 8.1 71 2.7 SSW 17 22 9 12 1018.0 1018.5 0.0
22/07:30pm 16.2 12.5 6.3 52 5.1 W 15 20 8 11 1017.1 1017.6 0.0
22/07:00pm 18.1 14.8 6.3 46 6.2 WNW 13 19 7 10 1016.6 1017.2 0.0
22/06:30pm 17.8 13.6 5.7 45 6.2 WNW 17 32 9 17 1017.1 1017.6 0.0
22/06:00pm 18.5 14.7 6.0 44 6.5 W 15 26 8 14 1017.4 1017.9 0.0
22/05:30pm 18.9 14.3 6.4 44 6.6 W 20 30 11 16 1017.4 1017.9 0.0
22/05:00pm 19.3 14.8 7.1 45 6.5 W 20 30 11 16 1017.7 1018.3 0.0
22/04:30pm 19.0 12.7 5.8 42 6.9 W 28 41 15 22 1017.7 1018.3 0.0
22/04:09pm 20.3 14.0 5.5 38 7.7 W 28 46 15 25 1017.5 1018.1 0.0
22/04:00pm 20.0 13.8 6.0 40 7.3 W 28 41 15 22 1017.6 1018.2 0.0
22/03:37pm 21.2 14.2 6.7 39 7.8 W 33 52 18 28 1018.1 1018.6 0.0
22/03:30pm 20.5 12.1 5.7 38 7.8 W 39 52 21 28 1018.0 1018.5 0.0
22/03:03pm 21.8 14.1 5.3 34 8.6 W 35 54 19 29 1018.0 1018.5 0.0
22/03:00pm 22.0 13.3 4.1 31 9.2 W 39 54 21 29 1017.8 1018.4 0.0
22/02:44pm 22.8 15.2 3.9 29 9.7 W 33 52 18 28 1017.7 1018.3 0.0
22/02:30pm 23.0 15.5 3.5 28 10.0 W 32 44 17 24 1017.8 1018.4 0.0
22/02:00pm 22.4 15.1 4.5 31 9.3 W 32 44 17 24 1018.1 1018.6 0.0
22/01:33pm 21.9 14.9 2.1 27 9.8 W 28 46 15 25 1018.3 1018.9 0.0
22/01:30pm 22.3 15.0 2.4 27 9.9 W 30 43 16 23 1018.4 1019.0 0.0
22/01:20pm 21.8 14.0 2.0 27 9.8 WSW 32 52 17 28 1018.5 1019.1 0.0
22/01:00pm 22.1 14.6 3.3 29 9.5 W 32 43 17 23 1018.6 1019.2 0.0
22/12:30pm 21.6 14.1 3.3 30 9.2 W 32 43 17 23 1019.0 1019.5 0.0
22/12:00pm 21.7 13.7 1.4 26 9.9 W 33 48 18 26 1019.3 1019.9 0.0
22/11:57am 22.5 15.1 2.1 26 10.1 W 30 46 16 25 1019.2 1019.8 0.0
22/11:30am 21.7 16.1 1.4 26 9.9 WNW 20 26 11 14 1019.5 1020.1 0.0
22/11:00am 21.0 15.2 -0.3 24 10.0 W 20 30 11 16 1020.1 1020.7 0.0
22/10:30am 19.7 13.6 -2.6 22 9.9 W 20 32 11 17 1020.4 1021.0 0.0
22/10:00am 18.2 12.4 -4.5 21 9.5 W 17 26 9 14 1020.7 1021.4 0.0
22/09:30am 16.7 11.5 -6.3 20 9.2 WNW 13 24 7 13 1020.7 1021.4 0.0
22/09:00am 13.4 9.7 -2.5 33 6.7 E 7 9 4 5 1020.7 1021.4 0.0
22/08:30am 9.9 8.1 3.2 63 3.1 E 2 6 1 3 1021.1 1021.7 0.0
22/08:00am 6.9 4.6 2.8 75 1.8 SSE 4 7 2 4 1021.2 1021.8 0.0
22/07:30am 5.5 2.6 2.7 82 1.2 NE 7 11 4 6 1021.3 1021.9 0.0
22/07:00am 3.7 0.6 1.4 85 1.0 NE 7 13 4 7 1021.3 1021.9 0.0
22/06:30am 1.6 -1.1 0.6 93 0.4 SW 4 9 2 5 1021.4 1022.0 0.0
22/06:00am 0.5 -2.8 -0.2 95 0.3 ESE 7 11 4 6 1021.6 1022.3 0.0
22/05:30am 1.1 -1.7 -0.4 90 0.6 N 4 7 2 4 1021.8 1022.5 0.0
22/05:00am 1.4 -1.6 0.7 95 0.3 NE 6 15 3 8 1021.9 1022.6 0.0
22/04:30am 1.7 -1.4 0.1 89 0.6 WNW 6 9 3 5 1022.5 1023.2 0.0
22/04:00am 3.1 -0.4 1.5 89 0.7 NNE 9 15 5 8 1022.9 1023.6 0.0
22/03:30am 3.5 -0.6 2.2 91 0.6 NNE 13 24 7 13 1023.2 1023.9 0.0
22/03:00am 3.6 -0.1 2.3 91 0.6 NNE 11 22 6 12 1023.9 1024.6 0.0
22/02:30am 3.5 -0.6 2.3 92 0.5 NE 13 20 7 11 1024.3 1025.0 0.0
22/02:00am 3.8 0.8 2.3 90 0.6 NNW 7 11 4 6 1024.6 1025.3 0.0
22/01:30am 3.7 0.7 2.2 90 0.6 W 7 20 4 11 1025.0 1025.8 0.0
22/01:00am 3.7 -1.1 2.4 91 0.6 NNE 17 26 9 14 1025.5 1026.2 0.0
22/12:30am 3.8 -0.3 2.3 90 0.6 N 13 20 7 11 1026.2 1026.9 0.0
22/12:00am 4.1 0.7 1.6 84 1.0 N 9 19 5 10 1025.9 1026.7 0.0
 
Date/Time
EDT
Temp
°C
App
Temp
°C
Dew
Point
Rel
Hum
%
Delta-T
°C
Wind Press
QNH
hPa
Press
MSL
hPa
Rain
since 9 am
mm
Dir
 
Spd
km/h
Gust
km/h
Spd
kts
Gust
kts
21/11:30pm 4.3 1.3 2.2 86 0.9 NE 7 22 4 12 1026.3 1027.0 0.0
21/11:00pm 2.9 -0.1 0.6 85 0.9 WNW 6 11 3 6 1026.7 1027.5 0.0
21/10:30pm 4.1 0.0 2.0 86 0.9 E 13 20 7 11 1026.8 1027.6 0.0
21/10:00pm 5.1 0.7 2.8 85 1.0 NNE 15 26 8 14 1027.5 1028.3 0.0
21/09:30pm 5.1 1.0 2.3 82 1.2 NNE 13 19 7 10 1027.6 1028.4 0.0
21/09:00pm 5.4 1.4 2.6 82 1.2 NNE 13 22 7 12 1027.6 1028.4 0.0
21/08:30pm 6.4 2.8 3.0 79 1.5 N 11 13 6 7 1027.8 1028.6 0.0
21/08:00pm 6.6 3.4 3.2 79 1.5 NE 9 13 5 7 1027.7 1028.5 0.0
21/07:30pm 8.0 4.4 3.1 71 2.2 N 11 22 6 12 1027.9 1028.7 0.0
21/07:00pm 9.5 6.3 3.3 65 2.8 N 9 15 5 8 1027.8 1028.6 0.0
21/06:30pm 10.8 7.1 2.4 56 3.8 N 11 17 6 9 1028.0 1028.9 0.0
21/06:00pm 11.7 7.9 1.6 50 4.5 NNW 11 17 6 9 1028.4 1029.2 0.0
21/05:30pm 12.7 8.9 2.0 48 4.9 N 11 19 6 10 1028.4 1029.2 0.0
21/05:00pm 12.6 7.4 0.4 43 5.4 NNE 17 24 9 13 1028.5 1029.3 0.0
21/04:30pm 13.4 8.6 0.4 41 5.8 N 15 20 8 11 1028.6 1029.4 0.0
21/04:00pm 13.5 9.1 0.5 41 5.8 N 13 22 7 12 1028.8 1029.6 0.0
21/03:30pm 13.6 8.4 0.3 40 5.9 N 17 28 9 15 1029.0 1029.9 0.0
21/03:00pm 13.6 7.8 2.5 47 5.2 NE 22 28 12 15 1029.3 1030.1 0.0
21/02:30pm 12.7 7.1 1.1 45 5.2 NNE 20 30 11 16 1029.7 1030.6 0.0
21/02:00pm 13.2 8.4 2.7 49 4.9 NNE 17 26 9 14 1030.3 1031.1 0.0
21/01:30pm 12.3 7.8 2.2 50 4.6 N 15 20 8 11 1030.4 1031.2 0.0
21/01:00pm 11.0 6.0 1.3 51 4.3 NNE 17 22 9 12 1030.6 1031.5 0.0
21/12:30pm 10.9 5.5 1.4 52 4.2 N 19 24 10 13 1030.8 1031.7 0.0
21/12:00pm 10.2 5.6 1.8 56 3.7 N 15 24 8 13 1030.9 1031.8 0.0
21/11:30am 9.8 5.2 1.5 56 3.7 NNE 15 30 8 16 1031.1 1032.0 0.0
21/11:00am 8.4 3.4 1.1 60 3.1 NNE 17 24 9 13 1031.3 1032.1 0.0
21/10:30am 7.4 2.4 1.5 66 2.6 N 17 24 9 13 1031.6 1032.5 0.0
21/10:00am 7.8 3.8 0.5 60 3.1 N 11 17 6 9 1031.5 1032.4 0.0
21/09:30am 6.2 1.9 1.1 70 2.2 NE 13 26 7 14 1031.3 1032.1 0.0
21/09:00am 5.0 0.5 -0.4 68 2.2 NNE 13 19 7 10 1031.7 1032.6 0.0
21/08:30am 4.7 1.1 0.7 75 1.7 NNE 9 17 5 9 1031.7 1032.6 0.0
21/08:00am 3.2 0.0 0.8 84 1.0 NE 7 13 4 7 1031.5 1032.4 0.0
21/07:30am 1.0 -1.3 0.6 97 0.2 NNE 2 9 1 5 1031.4 1032.3 0.0
21/07:00am -2.2 -4.9 -2.2 100 0.0 W 2 7 1 4 1031.1 1032.0 0.0
21/06:30am -3.9 -7.6 -4.2 98 -0.1 NNE 6 9 3 5 1030.9 1031.8 0.0
21/06:00am -4.9 -7.9 -5.4 96 0.0 NE 2 7 1 4 1030.5 1031.3 0.0
21/05:30am -4.0 -6.5 -4.3 98 -0.1 CALM 0 0 0 0 1030.5 1031.3 0.0
21/05:00am -4.3 -8.0 -4.8 96 0.0 NE 6 9 3 5 1030.5 1031.3 0.0
21/04:30am -3.7 -6.2 -4.2 96 0.0 CALM 0 0 0 0 1030.5 1031.3 0.0
21/04:00am -3.7 -7.6 -4.4 95 0.1 NE 7 9 4 5 1030.5 1031.3 0.0
21/03:30am -3.1 -6.9 -3.6 96 0.0 WSW 7 11 4 6 1030.7 1031.6 0.0
21/03:00am -3.2 -7.0 -3.9 95 0.1 SE 7 9 4 5 1030.5 1031.3 0.0
21/02:30am -2.7 -6.2 -3.1 97 0.0 W 6 11 3 6 1030.7 1031.6 0.0
21/02:00am -3.1 -7.0 -4.4 91 0.3 NE 7 9 4 5 1030.7 1031.6 0.0
21/01:30am -2.2 -4.6 -3.5 91 0.4 CALM 0 6 0 3 1031.3 1032.1 0.0
21/01:00am -1.6 -5.3 -2.9 91 0.4 WSW 7 9 4 5 1031.4 1032.3 0.0
21/12:30am 0.2 -3.9 -3.3 77 1.3 N 9 17 5 9 1031.6 1032.5 0.0
21/12:00am -0.6 -4.6 -2.0 90 0.5 NE 9 17 5 9 1031.8 1032.7 0.0
 
Date/Time
EDT
Temp
°C
App
Temp
°C
Dew
Point
Rel
Hum
%
Delta-T
°C
Wind Press
QNH
hPa
Press
MSL
hPa
Rain
since 9 am
mm
Dir
 
Spd
km/h
Gust
km/h
Spd
kts
Gust
kts
20/11:30pm -1.3 -4.9 -2.3 93 0.3 WSW 7 7 4 4 1032.2 1033.2 0.0
20/11:00pm -0.7 -4.1 -2.0 91 0.4 W 6 7 3 4 1032.1 1033.1 0.0
20/10:30pm -0.3 -2.6 -2.3 86 0.7 CALM 0 0 0 0 1032.4 1033.3 0.0
20/10:00pm 0.9 -2.4 -1.5 84 0.9 W 6 7 3 4 1032.7 1033.6 0.0
20/09:30pm 2.8 -1.3 -0.3 80 1.2 NNE 11 15 6 8 1032.2 1033.2 0.0
20/09:00pm 2.8 -1.0 -0.6 78 1.3 NE 9 17 5 9 1032.1 1033.1 0.0
20/08:30pm 3.8 -1.0 0.5 79 1.3 NNE 15 19 8 10 1031.8 1032.7 0.0
20/08:00pm 5.0 0.3 0.8 74 1.7 NNE 15 20 8 11 1031.5 1032.4 0.0
20/07:30pm 5.9 2.0 0.9 70 2.1 NNE 11 15 6 8 1031.1 1032.0 0.0
20/07:00pm 8.1 4.3 1.5 63 2.9 NE 11 17 6 9 1030.8 1031.7 0.0
20/06:30pm 9.3 5.1 1.7 59 3.4 NE 13 15 7 8 1030.8 1031.7 0.0
20/06:00pm 8.7 4.0 1.1 59 3.3 NNE 15 19 8 10 1030.7 1031.6 0.0
20/05:30pm 9.2 4.5 0.9 56 3.6 NNE 15 20 8 11 1030.8 1031.7 0.0
20/05:00pm 11.0 7.0 0.7 49 4.5 NNE 11 19 6 10 1030.6 1031.5 0.0
20/04:30pm 10.4 6.4 0.4 50 4.4 ENE 11 19 6 10 1030.6 1031.5 0.0
20/04:00pm 10.6 6.1 -0.5 46 4.7 NE 13 22 7 12 1030.5 1031.3 0.0
20/03:30pm 11.4 6.7 0.8 48 4.7 NE 15 22 8 12 1030.5 1031.3 0.0
20/03:00pm 10.5 5.5 -3.9 36 5.6 E 13 20 7 11 1030.6 1031.5 0.0
20/02:30pm 10.3 4.9 -1.7 43 5.0 E 17 20 9 11 1030.7 1031.6 0.0
20/02:00pm 9.3 4.9 -5.4 35 5.5 E 9 17 5 9 1030.9 1031.8 0.0
20/01:30pm 9.3 4.2 -1.7 46 4.5 E 15 20 8 11 1031.3 1032.1 0.0
20/01:00pm 8.2 4.5 -3.3 44 4.4 SSE 7 13 4 7 1031.1 1032.0 0.0
20/12:30pm 7.7 3.4 -1.5 52 3.7 E 11 19 6 10 1031.3 1032.1 0.0
20/12:00pm 7.0 2.2 -2.2 52 3.6 E 13 20 7 11 1031.4 1032.3 0.0
20/11:30am 6.2 2.1 -0.1 64 2.6 E 11 20 6 11 1031.5 1032.4 0.0
20/11:00am 5.1 0.6 -0.3 68 2.2 ESE 13 17 7 9 1031.7 1032.6 0.0

Other Formats:

Comma delimited format used in spreadsheet applications
http://www.bom.gov.au/fwo/IDT60801/IDT60801.95959.axf

JavaScript Object Notation format (JSON) in row-major order
http://www.bom.gov.au/fwo/IDT60801/IDT60801.95959.json